Terminal Aerodrome Forecast
Issued by NWS

Home | Current Version | Previous Version | Text Only | Print | Product List | Glossary Off
Versions: 1 2 3 4 5 6 7 8 9 10 11 12

000
FTUS43 KMPX 091700
TAFAXN
TAF
KAXN 091728Z 0918/1018 31008KT P6SM SCT040
     FM100100 VRB03KT P6SM SKC
     FM101500 17010KT P6SM SCT150=

USA.gov is the U.S. government's official web portal to all federal, state and local government web resources and services.